createdAt,value
2018-07-10T00:00:47.484Z,1.30
2018-07-10T00:03:41.860Z,1.42
2018-07-10T00:06:22.856Z,1.52
2018-07-10T00:08:56.152Z,1.17
2018-07-10T00:11:25.768Z,1.10
2018-07-10T00:13:54.390Z,1.30
2018-07-10T00:16:23.075Z,1.62
2018-07-10T00:18:51.683Z,1.80
2018-07-10T00:21:22.614Z,1.48
2018-07-10T00:23:51.286Z,1.40
2018-07-10T00:26:20.333Z,1.48
2018-07-10T00:28:52.175Z,1.40
2018-07-10T00:31:21.494Z,1.58
2018-07-10T00:33:50.498Z,1.58
2018-07-10T00:36:19.762Z,1.75
2018-07-10T00:38:58.144Z,1.67
2018-07-10T00:41:29.699Z,1.50
2018-07-10T00:44:02.149Z,1.77
2018-07-10T00:46:30.908Z,1.70
2018-07-10T00:48:59.473Z,1.25
2018-07-10T00:51:29.474Z,1.50
2018-07-10T00:53:58.636Z,1.40
2018-07-10T00:56:27.485Z,1.73
2018-07-10T00:58:56.573Z,1.48
2018-07-10T01:01:25.589Z,1.37
2018-07-10T01:03:54.284Z,1.00
2018-07-10T01:06:22.918Z,1.73
2018-07-10T01:08:55.590Z,1.10
2018-07-10T01:11:24.310Z,1.23
2018-07-10T01:13:53.901Z,1.52
2018-07-10T01:16:25.701Z,1.33
2018-07-10T01:18:54.770Z,1.17
2018-07-10T01:21:23.488Z,1.70
2018-07-10T01:23:52.921Z,1.80
2018-07-10T01:26:21.565Z,1.37
2018-07-10T01:28:51.012Z,1.40
2018-07-10T01:35:20.971Z,1.65
2018-07-10T01:37:51.015Z,1.67
2018-07-10T01:40:22.823Z,1.30
2018-07-10T01:49:30.293Z,1.85
2018-07-10T01:51:58.911Z,1.80
2018-07-10T01:54:27.598Z,1.70
2018-07-10T01:56:56.234Z,1.87
2018-07-10T01:59:24.918Z,1.65
2018-07-10T02:01:53.647Z,1.50
2018-07-10T02:04:22.488Z,1.55
2018-07-10T02:06:52.171Z,1.65
2018-07-10T02:09:20.859Z,1.65
2018-07-10T02:11:49.490Z,1.40
2018-07-10T02:14:18.454Z,1.58
2018-07-10T02:16:47.262Z,1.75
2018-07-10T02:19:16.480Z,1.60
2018-07-10T02:21:45.543Z,1.55
2018-07-10T02:24:14.407Z,1.65
2018-07-10T02:26:43.294Z,1.50
2018-07-10T02:29:12.100Z,1.90
2018-07-10T02:31:41.030Z,1.33
2018-07-10T02:34:09.579Z,1.70
2018-07-10T02:36:38.384Z,1.95
2018-07-10T02:39:07.007Z,1.52
2018-07-10T02:41:36.100Z,1.70
2018-07-10T02:44:04.904Z,1.50
2018-07-10T02:46:33.950Z,1.65
2018-07-10T02:49:02.913Z,1.70
2018-07-10T02:51:31.993Z,1.83
2018-07-10T02:54:01.132Z,1.92
2018-07-10T02:56:30.066Z,1.62
2018-07-10T02:58:59.323Z,1.55
2018-07-10T03:01:28.810Z,2.17
2018-07-10T03:03:57.544Z,2.05
2018-07-10T03:06:26.283Z,2.28
2018-07-10T03:08:54.896Z,2.10
2018-07-10T03:11:23.675Z,1.90
2018-07-10T03:13:52.300Z,1.95
2018-07-10T03:16:21.334Z,2.30
2018-07-10T03:18:50.434Z,2.60
2018-07-10T03:21:19.568Z,2.50
2018-07-10T03:23:48.184Z,2.65
2018-07-10T03:26:16.936Z,2.40
2018-07-10T03:28:46.012Z,2.30
2018-07-10T03:31:14.700Z,2.55
2018-07-10T03:33:43.553Z,2.50
2018-07-10T03:36:12.743Z,2.70
2018-07-10T03:38:41.759Z,2.10
2018-07-10T03:41:10.598Z,2.95
2018-07-10T03:43:39.434Z,2.80
2018-07-10T03:46:08.549Z,2.50
2018-07-10T03:48:37.130Z,3.03
2018-07-10T03:51:05.840Z,2.53
2018-07-10T03:53:34.557Z,2.40
2018-07-10T03:56:03.949Z,3.10
2018-07-10T03:58:33.080Z,2.67
2018-07-10T04:01:01.882Z,3.12
2018-07-10T04:03:31.720Z,2.80
2018-07-10T04:06:00.416Z,3.08
2018-07-10T04:08:29.287Z,3.05
2018-07-10T04:10:59.327Z,2.85
2018-07-10T04:13:27.988Z,3.00
2018-07-10T04:15:57.412Z,3.40
2018-07-10T04:18:28.659Z,3.25
2018-07-10T04:20:57.648Z,3.60
2018-07-10T04:23:26.303Z,4.50
2018-07-10T04:25:54.997Z,5.95
2018-07-10T04:28:23.894Z,5.47
2018-07-10T04:30:52.521Z,3.72
2018-07-10T04:33:21.238Z,3.03
2018-07-10T04:35:50.701Z,2.60
2018-07-10T04:38:19.361Z,2.72
2018-07-10T04:40:49.285Z,3.17
2018-07-10T04:43:18.057Z,2.95
2018-07-10T04:45:46.691Z,3.25
2018-07-10T04:48:15.501Z,2.42
2018-07-10T04:50:44.284Z,3.25
2018-07-10T04:53:13.090Z,2.40
2018-07-10T04:55:41.769Z,2.10
2018-07-10T04:58:10.413Z,2.62
2018-07-10T05:00:39.330Z,2.70
2018-07-10T05:03:08.372Z,3.10
2018-07-10T05:05:37.042Z,2.60
2018-07-10T05:08:05.708Z,2.60
2018-07-10T05:10:34.507Z,2.40
2018-07-10T05:13:03.578Z,3.00
2018-07-10T05:15:32.238Z,2.87
2018-07-10T05:18:00.855Z,2.35
2018-07-10T05:20:29.510Z,2.87
2018-07-10T05:22:58.287Z,2.28
2018-07-10T05:25:27.910Z,2.37
2018-07-10T05:27:56.537Z,2.58
2018-07-10T05:30:32.191Z,3.28
2018-07-10T05:33:01.532Z,2.83
2018-07-10T05:35:31.195Z,2.70
2018-07-10T05:38:01.468Z,2.62
2018-07-10T05:40:30.188Z,2.58
2018-07-10T05:42:58.811Z,2.55
2018-07-10T05:45:27.639Z,2.70
2018-07-10T05:47:56.263Z,2.80
2018-07-10T05:50:25.006Z,2.90
2018-07-10T05:52:53.573Z,3.00
2018-07-10T05:55:22.376Z,2.70
2018-07-10T05:57:51.249Z,3.28
2018-07-10T06:00:20.116Z,2.65
2018-07-10T06:02:48.701Z,3.10
2018-07-10T06:05:17.382Z,2.90
2018-07-10T06:07:46.014Z,2.15
2018-07-10T06:10:15.002Z,3.60
2018-07-10T06:12:45.166Z,3.03
2018-07-10T06:15:13.774Z,2.85
2018-07-10T06:17:43.990Z,3.08
2018-07-10T06:20:12.634Z,2.78
2018-07-10T06:22:41.279Z,3.60
2018-07-10T06:25:10.573Z,3.33
2018-07-10T06:27:39.252Z,3.10
2018-07-10T06:30:07.884Z,2.67
2018-07-10T06:32:36.513Z,2.58
2018-07-10T06:35:05.178Z,2.70
2018-07-10T06:37:33.806Z,3.05
2018-07-10T06:40:02.579Z,3.08
2018-07-10T06:42:31.264Z,2.30
2018-07-10T06:44:59.901Z,2.37
2018-07-10T06:47:28.529Z,2.15
2018-07-10T06:49:57.669Z,2.53
2018-07-10T06:52:26.458Z,2.35
2018-07-10T06:54:57.582Z,2.17
2018-07-10T06:57:26.304Z,2.35
2018-07-10T06:59:54.975Z,2.40
2018-07-10T07:02:23.533Z,2.60
2018-07-10T07:04:52.187Z,2.40
2018-07-10T07:07:20.834Z,2.25
2018-07-10T07:09:49.460Z,2.20
2018-07-10T07:12:18.135Z,2.40
2018-07-10T07:14:46.773Z,2.22
2018-07-10T07:17:15.468Z,1.90
2018-07-10T07:19:44.087Z,2.50
2018-07-10T07:22:12.768Z,1.95
2018-07-10T07:24:41.766Z,2.10
2018-07-10T07:27:10.412Z,2.10
2018-07-10T07:29:40.202Z,2.03
2018-07-10T07:32:09.898Z,1.90
2018-07-10T07:34:38.764Z,2.20
2018-07-10T07:37:08.094Z,1.95
2018-07-10T07:39:36.710Z,2.15
2018-07-10T07:42:06.550Z,1.83
2018-07-10T07:44:35.395Z,2.17
2018-07-10T07:47:04.186Z,2.08
2018-07-10T07:49:49.634Z,1.80
2018-07-10T07:52:18.765Z,2.40
2018-07-10T07:54:47.696Z,1.80
2018-07-10T07:57:16.748Z,1.62
2018-07-10T07:59:45.635Z,2.17
2018-07-10T08:02:14.762Z,2.12
2018-07-10T08:04:43.894Z,1.90
2018-07-10T08:07:12.540Z,2.20
2018-07-10T08:09:41.175Z,1.70
2018-07-10T08:12:10.137Z,2.10
2018-07-10T08:14:38.769Z,2.25
2018-07-10T08:17:07.426Z,2.12
2018-07-10T08:19:36.124Z,2.22
2018-07-10T08:22:05.145Z,2.25
2018-07-10T08:24:33.813Z,1.90
2018-07-10T08:27:02.472Z,1.90
2018-07-10T08:29:31.846Z,2.22
2018-07-10T08:32:00.525Z,2.12
2018-07-10T08:34:29.167Z,2.40
2018-07-10T08:36:57.879Z,2.10
2018-07-10T08:39:27.069Z,2.00
2018-07-10T08:41:57.189Z,1.60
2018-07-10T08:44:26.137Z,2.28
2018-07-10T08:46:55.133Z,1.90
2018-07-10T08:49:24.101Z,2.37
2018-07-10T08:51:53.037Z,2.20
2018-07-10T08:54:21.659Z,2.28
2018-07-10T08:56:51.649Z,2.05
2018-07-10T08:59:21.881Z,2.12
2018-07-10T09:01:51.385Z,2.28
2018-07-10T09:04:20.494Z,2.47
2018-07-10T09:06:49.148Z,2.15
2018-07-10T09:09:18.130Z,2.40
2018-07-10T09:11:47.277Z,2.08
2018-07-10T09:14:17.201Z,2.15
2018-07-10T09:16:46.221Z,2.50
2018-07-10T09:19:14.846Z,2.60
2018-07-10T09:21:43.455Z,2.10
2018-07-10T09:24:12.104Z,1.90
2018-07-10T09:26:43.243Z,2.30
2018-07-10T09:29:11.905Z,2.67
2018-07-10T09:31:40.538Z,2.83
2018-07-10T09:34:09.202Z,2.97
2018-07-10T09:36:37.833Z,2.60
2018-07-10T09:39:06.494Z,2.17
2018-07-10T09:41:35.122Z,2.10
2018-07-10T09:44:03.899Z,2.05
2018-07-10T09:46:32.406Z,2.62
2018-07-10T09:49:01.059Z,2.40
2018-07-10T09:51:29.685Z,2.45
2018-07-10T09:53:58.343Z,2.45
2018-07-10T09:56:26.977Z,2.40
2018-07-10T09:58:55.654Z,1.80
2018-07-10T10:01:24.449Z,2.10
2018-07-10T10:03:53.107Z,1.98
2018-07-10T10:06:21.719Z,1.85
2018-07-10T10:08:50.364Z,2.20
2018-07-10T10:11:19.315Z,1.70
2018-07-10T10:13:48.039Z,2.03
2018-07-10T10:16:17.920Z,2.60
2018-07-10T10:18:46.732Z,1.90
2018-07-10T10:21:16.776Z,1.95
2018-07-10T10:23:45.587Z,2.10
2018-07-10T10:26:14.200Z,2.33
2018-07-10T10:28:43.031Z,2.28
2018-07-10T10:31:11.656Z,1.83
2018-07-10T10:33:40.299Z,2.00
2018-07-10T10:36:08.932Z,1.98
2018-07-10T10:38:39.306Z,2.58
2018-07-10T10:41:07.961Z,2.42
2018-07-10T10:43:36.636Z,2.20
2018-07-10T10:46:05.288Z,2.42
2018-07-10T10:48:34.230Z,2.17
2018-07-10T10:51:04.122Z,2.50
2018-07-10T10:53:32.971Z,2.15
2018-07-10T10:56:01.824Z,2.05
2018-07-10T10:58:32.707Z,2.40
2018-07-10T11:01:01.446Z,2.42
2018-07-10T11:03:30.321Z,2.28
2018-07-10T11:05:58.994Z,1.98
2018-07-10T11:08:27.661Z,2.37
2018-07-10T11:10:56.819Z,2.70
2018-07-10T11:13:25.561Z,2.85
2018-07-10T11:15:54.591Z,2.40
2018-07-10T11:18:23.112Z,2.70
2018-07-10T11:20:51.749Z,3.28
2018-07-10T11:23:20.364Z,2.40
2018-07-10T11:25:49.305Z,2.75
2018-07-10T11:28:17.943Z,2.58
2018-07-10T11:30:46.593Z,2.30
2018-07-10T11:33:15.238Z,3.00
2018-07-10T11:35:43.925Z,2.50
2018-07-10T11:38:12.566Z,2.80
2018-07-10T11:40:41.222Z,3.20
2018-07-10T11:43:09.876Z,3.12
2018-07-10T11:45:38.545Z,3.40
2018-07-10T11:48:07.143Z,2.90
2018-07-10T11:50:35.799Z,3.20
2018-07-10T11:53:04.440Z,3.00
2018-07-10T11:55:33.199Z,2.80
2018-07-10T11:58:01.829Z,3.15
2018-07-10T12:00:30.549Z,2.60
2018-07-10T12:02:59.188Z,2.85
2018-07-10T12:05:27.914Z,2.80
2018-07-10T12:07:56.548Z,2.42
2018-07-10T12:10:25.232Z,2.50
2018-07-10T12:12:53.860Z,2.62
2018-07-10T12:15:22.504Z,3.15
2018-07-10T12:17:51.154Z,3.03
2018-07-10T12:20:19.796Z,2.83
2018-07-10T12:25:36.023Z,2.67
2018-07-10T12:28:04.756Z,2.65
2018-07-10T12:30:33.308Z,2.83
2018-07-10T12:33:01.937Z,2.70
2018-07-10T12:35:30.639Z,2.83
2018-07-10T12:37:59.361Z,3.15
2018-07-10T12:40:28.084Z,2.92
2018-07-10T12:42:56.757Z,2.73
2018-07-10T12:45:25.430Z,2.72
2018-07-10T12:47:54.048Z,2.47
2018-07-10T12:50:22.702Z,2.97
2018-07-10T12:52:51.336Z,3.00
2018-07-10T12:55:20.025Z,2.55
2018-07-10T12:57:54.400Z,2.50
2018-07-10T13:00:24.858Z,2.72
2018-07-10T13:02:53.545Z,3.08
2018-07-10T13:05:25.456Z,2.25
2018-07-10T13:10:55.405Z,2.53
2018-07-10T13:13:30.026Z,3.65
2018-07-10T13:15:56.086Z,3.35
2018-07-10T13:18:24.759Z,4.00
2018-07-10T13:20:53.385Z,3.42
2018-07-10T13:23:22.052Z,3.47
2018-07-10T13:25:51.871Z,3.47
2018-07-10T13:28:23.767Z,2.67
2018-07-10T13:30:54.138Z,3.37
2018-07-10T13:33:23.191Z,2.75
2018-07-10T13:35:52.390Z,3.17
2018-07-10T13:38:21.083Z,2.92
2018-07-10T13:40:49.831Z,2.83
2018-07-10T13:43:19.501Z,3.10
2018-07-10T13:45:48.331Z,2.58
2018-07-10T13:48:17.383Z,2.70
2018-07-10T13:50:47.905Z,3.00
2018-07-10T13:53:16.864Z,2.83
2018-07-10T13:55:50.311Z,2.65
2018-07-10T13:58:19.135Z,2.78
2018-07-10T14:00:47.804Z,2.67
2018-07-10T14:03:16.442Z,2.70
2018-07-10T14:05:45.100Z,2.45
2018-07-10T14:08:13.715Z,2.62
2018-07-10T14:10:42.771Z,2.62
2018-07-10T14:13:12.765Z,2.47
2018-07-10T14:15:41.417Z,2.45
2018-07-10T14:18:13.390Z,2.40
2018-07-10T14:20:43.642Z,2.62
2018-07-10T14:23:13.477Z,2.40
2018-07-10T14:25:42.445Z,2.20
2018-07-10T14:28:11.609Z,2.37
2018-07-10T14:30:41.647Z,2.40
2018-07-10T14:33:10.320Z,2.20
2018-07-10T14:35:38.948Z,2.20
2018-07-10T14:38:07.615Z,2.40
2018-07-10T14:40:36.263Z,2.15
2018-07-10T14:43:05.242Z,2.22
2018-07-10T14:45:34.291Z,1.87
2018-07-10T14:48:02.959Z,2.20
2018-07-10T14:50:31.689Z,2.20
2018-07-10T14:53:08.849Z,2.33
2018-07-10T14:55:38.871Z,2.10
2018-07-10T14:58:07.633Z,2.08
2018-07-10T15:00:36.288Z,2.35
2018-07-10T15:03:04.944Z,2.22
2018-07-10T15:05:34.684Z,2.00
2018-07-10T15:08:04.790Z,2.10
2018-07-10T15:10:33.514Z,2.17
2018-07-10T15:13:03.706Z,1.98
2018-07-10T15:15:39.147Z,2.08
2018-07-10T15:18:07.730Z,2.20
2018-07-10T15:20:36.881Z,2.10
2018-07-10T15:23:07.478Z,2.58
2018-07-10T15:25:36.088Z,2.63
2018-07-10T15:28:04.739Z,2.12
2018-07-10T15:30:33.370Z,2.53
2018-07-10T15:33:02.023Z,2.08
2018-07-10T15:35:30.675Z,2.50
2018-07-10T15:37:59.337Z,1.77
2018-07-10T15:40:27.983Z,1.90
2018-07-10T15:42:56.648Z,1.95
2018-07-10T15:45:25.288Z,1.87
2018-07-10T15:47:55.305Z,2.15
2018-07-10T15:50:24.696Z,2.05
2018-07-10T15:52:53.385Z,2.00
2018-07-10T15:55:21.991Z,2.00
2018-07-10T15:57:51.037Z,1.90
2018-07-10T16:00:19.900Z,2.83
2018-07-10T16:02:49.201Z,2.55
2018-07-10T16:05:25.774Z,2.55
2018-07-10T16:07:48.710Z,2.30
2018-07-10T16:10:30.375Z,2.00
2018-07-10T16:13:06.077Z,2.33
2018-07-10T16:15:33.281Z,2.00
2018-07-10T16:18:09.880Z,2.15
2018-07-10T16:20:46.566Z,2.10
2018-07-10T16:23:23.750Z,2.07
2018-07-10T16:26:00.667Z,2.40
2018-07-10T16:28:32.665Z,2.47
2018-07-10T16:31:02.017Z,2.78
2018-07-10T16:33:39.811Z,2.67
2018-07-10T16:36:08.042Z,2.35
2018-07-10T16:38:37.519Z,2.60
2018-07-10T16:41:06.096Z,3.08
2018-07-10T16:43:37.533Z,2.70
2018-07-10T16:46:14.388Z,3.90
2018-07-10T16:48:44.215Z,2.50
2018-07-10T16:51:20.573Z,2.50
2018-07-10T16:53:49.686Z,3.00
2018-07-10T16:56:18.702Z,3.00
2018-07-10T16:58:47.570Z,2.67
2018-07-10T17:01:16.164Z,2.62
2018-07-10T17:03:44.821Z,2.97
2018-07-10T17:06:13.594Z,2.30
2018-07-10T17:08:42.360Z,2.40
2018-07-10T17:11:11.151Z,2.78
2018-07-10T17:13:42.890Z,2.40
2018-07-10T17:16:11.593Z,2.53
2018-07-10T17:18:43.217Z,2.70
2018-07-10T17:21:11.814Z,3.12
2018-07-10T17:23:40.962Z,2.50
2018-07-10T17:26:09.633Z,2.70
2018-07-10T17:28:39.130Z,2.50
2018-07-10T17:31:07.742Z,2.65
2018-07-10T17:33:38.434Z,2.53
2018-07-10T17:36:08.045Z,2.55
2018-07-10T17:38:36.692Z,2.85
2018-07-10T17:41:07.176Z,3.42
2018-07-10T17:43:37.243Z,2.90
2018-07-10T17:46:06.248Z,2.90
2018-07-10T17:48:35.636Z,2.80
2018-07-10T17:51:04.313Z,2.80
2018-07-10T17:53:32.938Z,2.90
2018-07-10T17:56:01.590Z,2.42
2018-07-10T17:58:30.225Z,2.55
2018-07-10T18:00:58.896Z,2.50
2018-07-10T18:03:27.511Z,2.40
2018-07-10T18:05:56.172Z,2.25
2018-07-10T18:08:24.859Z,2.72
2018-07-10T18:10:53.540Z,2.47
2018-07-10T18:13:22.156Z,2.65
2018-07-10T18:15:50.823Z,2.45
2018-07-10T18:18:19.450Z,2.40
2018-07-10T18:20:50.181Z,2.87
2018-07-10T18:23:19.147Z,2.67
2018-07-10T18:25:48.808Z,2.47
2018-07-10T18:28:17.898Z,2.80
2018-07-10T18:30:48.322Z,2.60
2018-07-10T18:33:18.961Z,2.35
2018-07-10T18:35:48.782Z,2.42
2018-07-10T18:38:18.243Z,2.90
2018-07-10T18:40:47.252Z,2.75
2018-07-10T18:43:18.030Z,2.78
2018-07-10T18:45:46.930Z,2.95
2018-07-10T18:48:21.198Z,3.15
2018-07-10T18:50:51.067Z,4.10
2018-07-10T18:53:21.559Z,4.12
2018-07-10T18:55:51.740Z,3.47
2018-07-10T18:58:21.274Z,3.80
2018-07-10T19:00:50.594Z,4.68
2018-07-10T19:03:20.286Z,4.53
2018-07-10T19:05:51.335Z,3.70
2018-07-10T19:08:20.429Z,4.28
2018-07-10T19:10:49.368Z,5.37
2018-07-10T19:13:20.494Z,5.40
2018-07-10T19:15:47.250Z,5.75
2018-07-10T19:18:16.170Z,5.90
2018-07-10T19:20:45.448Z,5.65
2018-07-10T19:23:14.370Z,4.90
2018-07-10T19:25:43.660Z,5.12
2018-07-10T19:28:12.526Z,4.87
2018-07-10T19:30:41.972Z,5.00
2018-07-10T19:33:10.844Z,5.35
2018-07-10T19:35:41.468Z,5.43
2018-07-10T19:38:08.993Z,4.97
2018-07-10T19:40:37.869Z,5.47
2018-07-10T19:43:06.908Z,5.18
2018-07-10T19:45:35.880Z,5.07
2018-07-10T19:48:04.809Z,5.80
2018-07-10T19:50:33.902Z,5.95
2018-07-10T19:53:05.156Z,6.47
2018-07-10T19:55:34.469Z,7.57
2018-07-10T20:00:44.959Z,6.62
2018-07-10T20:11:53.945Z,6.62
2018-07-10T20:25:58.212Z,6.85
2018-07-10T20:45:29.597Z,6.90
2018-07-10T20:59:14.293Z,6.73
2018-07-10T21:18:43.455Z,5.77
2018-07-10T21:21:12.981Z,5.37
2018-07-10T21:26:41.886Z,6.00
2018-07-10T21:31:59.123Z,5.53
2018-07-10T21:34:33.433Z,5.03
2018-07-10T21:37:10.791Z,5.97
2018-07-10T21:42:30.137Z,5.90
2018-07-10T21:56:21.813Z,5.60
2018-07-10T22:10:12.761Z,6.43
2018-07-10T22:12:47.722Z,5.87
2018-07-10T22:26:29.175Z,7.30
2018-07-10T22:29:11.385Z,6.60
2018-07-10T23:19:38.690Z,6.83
2018-07-10T23:22:07.349Z,6.80
2018-07-10T23:24:36.160Z,6.73
2018-07-10T23:29:58.007Z,7.60
2018-07-10T23:55:05.944Z,7.17
2018-07-10T23:57:53.821Z,7.83
